sensor_id;sensor_type;location;lat;lon;timestamp;P1;durP1;ratioP1;P2;durP2;ratioP2
18445;SDS011;9352;50.888;4.466;2023-03-13T00:00:24;20.95;;;4.07;;
18445;SDS011;9352;50.888;4.466;2023-03-13T00:02:51;17.95;;;3.92;;
18445;SDS011;9352;50.888;4.466;2023-03-13T00:05:18;20.42;;;4.03;;
18445;SDS011;9352;50.888;4.466;2023-03-13T00:07:45;7.47;;;2.70;;
18445;SDS011;9352;50.888;4.466;2023-03-13T00:10:13;13.85;;;3.35;;
18445;SDS011;9352;50.888;4.466;2023-03-13T00:12:40;14.15;;;3.47;;
18445;SDS011;9352;50.888;4.466;2023-03-13T00:15:08;27.88;;;3.90;;
18445;SDS011;9352;50.888;4.466;2023-03-13T00:17:35;17.13;;;3.70;;
18445;SDS011;9352;50.888;4.466;2023-03-13T00:20:02;16.85;;;3.88;;
18445;SDS011;9352;50.888;4.466;2023-03-13T00:22:29;12.63;;;3.67;;
18445;SDS011;9352;50.888;4.466;2023-03-13T00:24:56;15.65;;;3.55;;
18445;SDS011;9352;50.888;4.466;2023-03-13T00:27:25;14.63;;;3.75;;
18445;SDS011;9352;50.888;4.466;2023-03-13T00:29:52;17.85;;;3.50;;
18445;SDS011;9352;50.888;4.466;2023-03-13T00:32:19;21.20;;;3.65;;
18445;SDS011;9352;50.888;4.466;2023-03-13T00:34:45;14.23;;;3.35;;
18445;SDS011;9352;50.888;4.466;2023-03-13T00:37:12;19.92;;;3.97;;
18445;SDS011;9352;50.888;4.466;2023-03-13T00:39:39;16.65;;;3.80;;
18445;SDS011;9352;50.888;4.466;2023-03-13T00:42:06;14.82;;;3.30;;
18445;SDS011;9352;50.888;4.466;2023-03-13T00:44:34;15.07;;;3.70;;
18445;SDS011;9352;50.888;4.466;2023-03-13T00:47:01;14.38;;;3.85;;
18445;SDS011;9352;50.888;4.466;2023-03-13T00:49:29;8.48;;;3.15;;
18445;SDS011;9352;50.888;4.466;2023-03-13T00:51:56;19.33;;;3.50;;
18445;SDS011;9352;50.888;4.466;2023-03-13T00:54:23;11.43;;;2.65;;
18445;SDS011;9352;50.888;4.466;2023-03-13T00:56:50;14.52;;;3.08;;
18445;SDS011;9352;50.888;4.466;2023-03-13T00:59:16;8.13;;;2.30;;
18445;SDS011;9352;50.888;4.466;2023-03-13T01:01:45;12.50;;;3.08;;
18445;SDS011;9352;50.888;4.466;2023-03-13T01:04:16;5.70;;;3.03;;
18445;SDS011;9352;50.888;4.466;2023-03-13T01:06:43;8.70;;;3.35;;
18445;SDS011;9352;50.888;4.466;2023-03-13T01:09:10;10.60;;;3.17;;
18445;SDS011;9352;50.888;4.466;2023-03-13T01:11:39;12.70;;;3.90;;
18445;SDS011;9352;50.888;4.466;2023-03-13T01:14:08;9.85;;;4.15;;
18445;SDS011;9352;50.888;4.466;2023-03-13T01:16:37;6.95;;;4.00;;
18445;SDS011;9352;50.888;4.466;2023-03-13T01:19:07;8.32;;;4.53;;
18445;SDS011;9352;50.888;4.466;2023-03-13T01:21:36;12.52;;;4.88;;
18445;SDS011;9352;50.888;4.466;2023-03-13T01:24:04;8.40;;;4.68;;
18445;SDS011;9352;50.888;4.466;2023-03-13T01:26:31;9.80;;;5.10;;
18445;SDS011;9352;50.888;4.466;2023-03-13T01:28:58;11.43;;;5.47;;
18445;SDS011;9352;50.888;4.466;2023-03-13T01:31:25;17.08;;;6.03;;
18445;SDS011;9352;50.888;4.466;2023-03-13T01:33:54;9.55;;;5.78;;
18445;SDS011;9352;50.888;4.466;2023-03-13T01:36:24;13.95;;;6.10;;
18445;SDS011;9352;50.888;4.466;2023-03-13T01:38:52;10.57;;;5.53;;
18445;SDS011;9352;50.888;4.466;2023-03-13T01:41:20;14.55;;;6.25;;
18445;SDS011;9352;50.888;4.466;2023-03-13T01:43:48;13.07;;;6.70;;
18445;SDS011;9352;50.888;4.466;2023-03-13T01:46:16;15.80;;;7.13;;
18445;SDS011;9352;50.888;4.466;2023-03-13T01:48:47;18.00;;;7.00;;
18445;SDS011;9352;50.888;4.466;2023-03-13T01:51:19;16.40;;;7.05;;
18445;SDS011;9352;50.888;4.466;2023-03-13T01:53:50;11.18;;;6.55;;
18445;SDS011;9352;50.888;4.466;2023-03-13T01:56:24;16.65;;;7.15;;
18445;SDS011;9352;50.888;4.466;2023-03-13T01:58:54;15.30;;;6.97;;
18445;SDS011;9352;50.888;4.466;2023-03-13T02:01:23;13.27;;;6.30;;
18445;SDS011;9352;50.888;4.466;2023-03-13T02:03:50;13.15;;;6.47;;
18445;SDS011;9352;50.888;4.466;2023-03-13T02:06:18;11.15;;;6.55;;
18445;SDS011;9352;50.888;4.466;2023-03-13T02:08:46;10.43;;;6.20;;
18445;SDS011;9352;50.888;4.466;2023-03-13T02:11:22;10.88;;;6.60;;
18445;SDS011;9352;50.888;4.466;2023-03-13T02:13:55;10.63;;;6.05;;
18445;SDS011;9352;50.888;4.466;2023-03-13T02:16:23;13.45;;;6.50;;
18445;SDS011;9352;50.888;4.466;2023-03-13T02:18:50;9.77;;;5.50;;
18445;SDS011;9352;50.888;4.466;2023-03-13T02:21:20;7.05;;;5.22;;
18445;SDS011;9352;50.888;4.466;2023-03-13T02:24:05;10.50;;;5.45;;
18445;SDS011;9352;50.888;4.466;2023-03-13T02:26:39;7.28;;;5.45;;
18445;SDS011;9352;50.888;4.466;2023-03-13T02:29:06;10.10;;;5.35;;
18445;SDS011;9352;50.888;4.466;2023-03-13T02:31:42;12.93;;;5.30;;
18445;SDS011;9352;50.888;4.466;2023-03-13T02:34:09;9.48;;;4.75;;
18445;SDS011;9352;50.888;4.466;2023-03-13T02:36:39;10.73;;;4.97;;
18445;SDS011;9352;50.888;4.466;2023-03-13T02:39:08;7.97;;;5.07;;
18445;SDS011;9352;50.888;4.466;2023-03-13T02:41:36;9.20;;;5.00;;
18445;SDS011;9352;50.888;4.466;2023-03-13T02:44:07;9.68;;;4.85;;
18445;SDS011;9352;50.888;4.466;2023-03-13T02:46:42;8.18;;;4.63;;
18445;SDS011;9352;50.888;4.466;2023-03-13T02:49:21;9.35;;;5.00;;
18445;SDS011;9352;50.888;4.466;2023-03-13T02:51:50;8.10;;;4.60;;
18445;SDS011;9352;50.888;4.466;2023-03-13T02:54:19;5.63;;;4.13;;
18445;SDS011;9352;50.888;4.466;2023-03-13T02:56:51;9.95;;;4.30;;
18445;SDS011;9352;50.888;4.466;2023-03-13T02:59:21;8.30;;;4.22;;
18445;SDS011;9352;50.888;4.466;2023-03-13T03:01:48;7.57;;;4.20;;
18445;SDS011;9352;50.888;4.466;2023-03-13T03:04:17;8.27;;;4.18;;
18445;SDS011;9352;50.888;4.466;2023-03-13T03:06:45;10.48;;;4.13;;
18445;SDS011;9352;50.888;4.466;2023-03-13T03:09:12;5.40;;;3.83;;
18445;SDS011;9352;50.888;4.466;2023-03-13T03:11:38;5.68;;;3.60;;
18445;SDS011;9352;50.888;4.466;2023-03-13T03:14:07;6.63;;;3.70;;
18445;SDS011;9352;50.888;4.466;2023-03-13T03:16:35;5.45;;;3.45;;
18445;SDS011;9352;50.888;4.466;2023-03-13T03:19:02;6.18;;;3.25;;
18445;SDS011;9352;50.888;4.466;2023-03-13T03:21:30;7.45;;;3.20;;
18445;SDS011;9352;50.888;4.466;2023-03-13T03:23:57;7.57;;;3.38;;
18445;SDS011;9352;50.888;4.466;2023-03-13T03:26:25;4.93;;;3.28;;
18445;SDS011;9352;50.888;4.466;2023-03-13T03:28:52;6.28;;;3.20;;
18445;SDS011;9352;50.888;4.466;2023-03-13T03:31:21;3.50;;;3.20;;
18445;SDS011;9352;50.888;4.466;2023-03-13T03:33:48;5.85;;;3.20;;
18445;SDS011;9352;50.888;4.466;2023-03-13T03:36:15;5.50;;;3.05;;
18445;SDS011;9352;50.888;4.466;2023-03-13T03:38:43;4.50;;;3.03;;
18445;SDS011;9352;50.888;4.466;2023-03-13T03:41:11;4.45;;;3.30;;
18445;SDS011;9352;50.888;4.466;2023-03-13T03:43:39;12.23;;;3.40;;
18445;SDS011;9352;50.888;4.466;2023-03-13T03:46:06;6.43;;;3.35;;
18445;SDS011;9352;50.888;4.466;2023-03-13T03:48:34;3.17;;;2.70;;
18445;SDS011;9352;50.888;4.466;2023-03-13T03:51:02;3.60;;;2.88;;
18445;SDS011;9352;50.888;4.466;2023-03-13T03:53:29;6.13;;;3.20;;
18445;SDS011;9352;50.888;4.466;2023-03-13T03:55:56;6.40;;;3.13;;
18445;SDS011;9352;50.888;4.466;2023-03-13T03:58:23;5.53;;;2.53;;
18445;SDS011;9352;50.888;4.466;2023-03-13T04:00:50;3.35;;;2.70;;
18445;SDS011;9352;50.888;4.466;2023-03-13T04:03:17;3.30;;;2.50;;
18445;SDS011;9352;50.888;4.466;2023-03-13T04:05:45;6.65;;;2.97;;
18445;SDS011;9352;50.888;4.466;2023-03-13T04:08:12;5.55;;;2.70;;
18445;SDS011;9352;50.888;4.466;2023-03-13T04:10:39;3.17;;;2.80;;
18445;SDS011;9352;50.888;4.466;2023-03-13T04:13:06;5.80;;;3.05;;
18445;SDS011;9352;50.888;4.466;2023-03-13T04:15:33;4.18;;;2.58;;
18445;SDS011;9352;50.888;4.466;2023-03-13T04:18:00;12.77;;;2.70;;
18445;SDS011;9352;50.888;4.466;2023-03-13T04:20:27;6.32;;;2.90;;
18445;SDS011;9352;50.888;4.466;2023-03-13T04:22:55;8.88;;;2.80;;
18445;SDS011;9352;50.888;4.466;2023-03-13T04:25:22;5.95;;;3.10;;
18445;SDS011;9352;50.888;4.466;2023-03-13T04:27:49;5.95;;;2.63;;
18445;SDS011;9352;50.888;4.466;2023-03-13T04:30:16;4.90;;;2.63;;
18445;SDS011;9352;50.888;4.466;2023-03-13T04:32:43;9.13;;;2.75;;
18445;SDS011;9352;50.888;4.466;2023-03-13T04:35:10;6.10;;;2.65;;
18445;SDS011;9352;50.888;4.466;2023-03-13T04:37:37;4.78;;;2.70;;
18445;SDS011;9352;50.888;4.466;2023-03-13T04:40:06;9.85;;;2.97;;
18445;SDS011;9352;50.888;4.466;2023-03-13T04:42:33;7.72;;;2.90;;
18445;SDS011;9352;50.888;4.466;2023-03-13T04:45:00;6.50;;;2.80;;
18445;SDS011;9352;50.888;4.466;2023-03-13T04:47:27;6.40;;;2.58;;
18445;SDS011;9352;50.888;4.466;2023-03-13T04:49:54;5.25;;;2.65;;
18445;SDS011;9352;50.888;4.466;2023-03-13T04:52:21;12.20;;;2.78;;
18445;SDS011;9352;50.888;4.466;2023-03-13T04:54:48;8.68;;;3.35;;
18445;SDS011;9352;50.888;4.466;2023-03-13T04:57:17;8.45;;;2.90;;
18445;SDS011;9352;50.888;4.466;2023-03-13T04:59:43;4.32;;;2.53;;
18445;SDS011;9352;50.888;4.466;2023-03-13T05:02:10;5.25;;;2.35;;
18445;SDS011;9352;50.888;4.466;2023-03-13T05:04:38;7.25;;;2.67;;
18445;SDS011;9352;50.888;4.466;2023-03-13T05:07:05;6.53;;;2.65;;
18445;SDS011;9352;50.888;4.466;2023-03-13T05:09:32;5.13;;;2.55;;
18445;SDS011;9352;50.888;4.466;2023-03-13T05:11:59;7.25;;;2.65;;
18445;SDS011;9352;50.888;4.466;2023-03-13T05:14:27;15.85;;;2.92;;
18445;SDS011;9352;50.888;4.466;2023-03-13T05:16:54;6.15;;;2.60;;
18445;SDS011;9352;50.888;4.466;2023-03-13T05:19:21;9.35;;;2.63;;
18445;SDS011;9352;50.888;4.466;2023-03-13T05:21:48;4.85;;;2.70;;
18445;SDS011;9352;50.888;4.466;2023-03-13T05:24:14;4.85;;;2.90;;
18445;SDS011;9352;50.888;4.466;2023-03-13T05:26:41;11.43;;;2.70;;
18445;SDS011;9352;50.888;4.466;2023-03-13T05:29:08;7.82;;;2.58;;
18445;SDS011;9352;50.888;4.466;2023-03-13T05:31:36;9.00;;;3.28;;
18445;SDS011;9352;50.888;4.466;2023-03-13T05:34:03;5.07;;;2.42;;
18445;SDS011;9352;50.888;4.466;2023-03-13T05:36:30;5.53;;;2.63;;
18445;SDS011;9352;50.888;4.466;2023-03-13T05:38:57;6.18;;;2.50;;
18445;SDS011;9352;50.888;4.466;2023-03-13T05:41:24;5.68;;;2.50;;
18445;SDS011;9352;50.888;4.466;2023-03-13T05:43:51;6.63;;;2.72;;
18445;SDS011;9352;50.888;4.466;2023-03-13T05:46:17;8.20;;;3.08;;
18445;SDS011;9352;50.888;4.466;2023-03-13T05:48:46;10.02;;;3.03;;
18445;SDS011;9352;50.888;4.466;2023-03-13T05:51:13;15.75;;;3.53;;
18445;SDS011;9352;50.888;4.466;2023-03-13T05:53:39;11.93;;;2.80;;
18445;SDS011;9352;50.888;4.466;2023-03-13T05:56:06;11.48;;;2.88;;
18445;SDS011;9352;50.888;4.466;2023-03-13T05:58:33;7.63;;;2.70;;
18445;SDS011;9352;50.888;4.466;2023-03-13T06:01:04;6.10;;;2.70;;
18445;SDS011;9352;50.888;4.466;2023-03-13T06:03:32;8.60;;;2.58;;
18445;SDS011;9352;50.888;4.466;2023-03-13T06:06:00;5.22;;;2.53;;
18445;SDS011;9352;50.888;4.466;2023-03-13T06:08:27;9.48;;;2.72;;
18445;SDS011;9352;50.888;4.466;2023-03-13T06:10:54;8.55;;;2.95;;
18445;SDS011;9352;50.888;4.466;2023-03-13T06:13:24;11.88;;;3.05;;
18445;SDS011;9352;50.888;4.466;2023-03-13T06:15:51;10.50;;;2.83;;
18445;SDS011;9352;50.888;4.466;2023-03-13T06:18:18;8.77;;;2.83;;
18445;SDS011;9352;50.888;4.466;2023-03-13T06:20:45;12.73;;;2.97;;
18445;SDS011;9352;50.888;4.466;2023-03-13T06:23:13;6.78;;;2.38;;
18445;SDS011;9352;50.888;4.466;2023-03-13T06:25:40;10.15;;;2.80;;
18445;SDS011;9352;50.888;4.466;2023-03-13T06:28:07;8.93;;;3.10;;
18445;SDS011;9352;50.888;4.466;2023-03-13T06:30:34;11.20;;;3.08;;
18445;SDS011;9352;50.888;4.466;2023-03-13T06:33:00;14.18;;;3.85;;
18445;SDS011;9352;50.888;4.466;2023-03-13T06:35:27;11.00;;;3.28;;
18445;SDS011;9352;50.888;4.466;2023-03-13T06:37:54;11.15;;;2.80;;
18445;SDS011;9352;50.888;4.466;2023-03-13T06:40:22;8.65;;;2.50;;
18445;SDS011;9352;50.888;4.466;2023-03-13T06:42:49;7.20;;;2.70;;
18445;SDS011;9352;50.888;4.466;2023-03-13T06:45:16;13.25;;;3.03;;
18445;SDS011;9352;50.888;4.466;2023-03-13T06:47:43;7.18;;;2.67;;
18445;SDS011;9352;50.888;4.466;2023-03-13T06:50:10;12.38;;;3.17;;
18445;SDS011;9352;50.888;4.466;2023-03-13T06:52:37;8.35;;;3.00;;
18445;SDS011;9352;50.888;4.466;2023-03-13T06:55:04;19.17;;;3.13;;
18445;SDS011;9352;50.888;4.466;2023-03-13T06:57:33;8.10;;;2.45;;
18445;SDS011;9352;50.888;4.466;2023-03-13T07:00:00;12.55;;;2.70;;
18445;SDS011;9352;50.888;4.466;2023-03-13T07:02:28;13.98;;;3.08;;
18445;SDS011;9352;50.888;4.466;2023-03-13T07:04:56;10.85;;;2.83;;
18445;SDS011;9352;50.888;4.466;2023-03-13T07:07:23;16.27;;;3.30;;
18445;SDS011;9352;50.888;4.466;2023-03-13T07:09:50;9.57;;;2.63;;
18445;SDS011;9352;50.888;4.466;2023-03-13T07:12:17;15.52;;;2.60;;
18445;SDS011;9352;50.888;4.466;2023-03-13T07:14:45;11.60;;;3.33;;
18445;SDS011;9352;50.888;4.466;2023-03-13T07:17:12;14.55;;;2.90;;
18445;SDS011;9352;50.888;4.466;2023-03-13T07:19:38;9.98;;;2.83;;
18445;SDS011;9352;50.888;4.466;2023-03-13T07:22:05;8.00;;;2.92;;
18445;SDS011;9352;50.888;4.466;2023-03-13T07:24:32;9.20;;;2.90;;
18445;SDS011;9352;50.888;4.466;2023-03-13T07:26:59;6.28;;;2.80;;
18445;SDS011;9352;50.888;4.466;2023-03-13T07:29:26;9.07;;;3.13;;
18445;SDS011;9352;50.888;4.466;2023-03-13T07:31:54;7.80;;;2.67;;
18445;SDS011;9352;50.888;4.466;2023-03-13T07:34:21;10.70;;;2.75;;
18445;SDS011;9352;50.888;4.466;2023-03-13T07:36:48;8.00;;;2.70;;
18445;SDS011;9352;50.888;4.466;2023-03-13T07:39:15;7.95;;;2.75;;
18445;SDS011;9352;50.888;4.466;2023-03-13T07:41:42;10.57;;;3.13;;
18445;SDS011;9352;50.888;4.466;2023-03-13T07:44:09;8.10;;;3.00;;
18445;SDS011;9352;50.888;4.466;2023-03-13T07:46:36;8.80;;;3.05;;
18445;SDS011;9352;50.888;4.466;2023-03-13T07:49:04;7.30;;;2.60;;
18445;SDS011;9352;50.888;4.466;2023-03-13T07:51:31;7.60;;;2.80;;
18445;SDS011;9352;50.888;4.466;2023-03-13T07:53:58;14.25;;;2.83;;
18445;SDS011;9352;50.888;4.466;2023-03-13T07:56:25;9.50;;;2.67;;
18445;SDS011;9352;50.888;4.466;2023-03-13T07:58:52;6.53;;;2.70;;
18445;SDS011;9352;50.888;4.466;2023-03-13T08:01:20;5.45;;;2.47;;
18445;SDS011;9352;50.888;4.466;2023-03-13T08:03:48;6.90;;;3.35;;
18445;SDS011;9352;50.888;4.466;2023-03-13T08:06:17;7.78;;;2.70;;
18445;SDS011;9352;50.888;4.466;2023-03-13T08:08:45;10.70;;;2.92;;
18445;SDS011;9352;50.888;4.466;2023-03-13T08:11:13;8.25;;;3.20;;
18445;SDS011;9352;50.888;4.466;2023-03-13T08:13:41;7.35;;;2.70;;
18445;SDS011;9352;50.888;4.466;2023-03-13T08:16:10;7.22;;;3.05;;
18445;SDS011;9352;50.888;4.466;2023-03-13T08:18:39;5.85;;;2.50;;
18445;SDS011;9352;50.888;4.466;2023-03-13T08:21:07;8.82;;;3.13;;
18445;SDS011;9352;50.888;4.466;2023-03-13T08:23:36;6.63;;;2.78;;
18445;SDS011;9352;50.888;4.466;2023-03-13T08:26:04;7.10;;;2.78;;
18445;SDS011;9352;50.888;4.466;2023-03-13T08:28:33;5.95;;;2.63;;
18445;SDS011;9352;50.888;4.466;2023-03-13T08:31:07;6.72;;;2.63;;
18445;SDS011;9352;50.888;4.466;2023-03-13T08:33:35;5.65;;;2.50;;
18445;SDS011;9352;50.888;4.466;2023-03-13T08:36:09;8.32;;;2.97;;
18445;SDS011;9352;50.888;4.466;2023-03-13T08:38:39;8.15;;;2.45;;
18445;SDS011;9352;50.888;4.466;2023-03-13T08:41:08;6.03;;;2.60;;
18445;SDS011;9352;50.888;4.466;2023-03-13T08:43:35;10.38;;;2.70;;
18445;SDS011;9352;50.888;4.466;2023-03-13T08:46:02;3.25;;;2.35;;
18445;SDS011;9352;50.888;4.466;2023-03-13T08:48:29;9.13;;;2.30;;
18445;SDS011;9352;50.888;4.466;2023-03-13T08:51:00;6.88;;;2.25;;
18445;SDS011;9352;50.888;4.466;2023-03-13T08:53:28;6.70;;;2.35;;
18445;SDS011;9352;50.888;4.466;2023-03-13T08:55:56;10.30;;;2.60;;
18445;SDS011;9352;50.888;4.466;2023-03-13T08:58:24;4.47;;;2.40;;
18445;SDS011;9352;50.888;4.466;2023-03-13T09:00:50;4.50;;;2.28;;
18445;SDS011;9352;50.888;4.466;2023-03-13T09:03:17;3.17;;;2.30;;
18445;SDS011;9352;50.888;4.466;2023-03-13T09:05:44;5.25;;;2.28;;
18445;SDS011;9352;50.888;4.466;2023-03-13T09:08:12;9.45;;;2.50;;
18445;SDS011;9352;50.888;4.466;2023-03-13T09:10:39;5.72;;;2.00;;
18445;SDS011;9352;50.888;4.466;2023-03-13T09:13:07;5.03;;;2.13;;
18445;SDS011;9352;50.888;4.466;2023-03-13T09:15:34;3.95;;;2.65;;
18445;SDS011;9352;50.888;4.466;2023-03-13T09:18:02;3.80;;;1.85;;
18445;SDS011;9352;50.888;4.466;2023-03-13T09:20:30;2.95;;;1.80;;
18445;SDS011;9352;50.888;4.466;2023-03-13T09:22:57;2.80;;;1.95;;
18445;SDS011;9352;50.888;4.466;2023-03-13T09:25:24;3.30;;;1.85;;
18445;SDS011;9352;50.888;4.466;2023-03-13T09:27:51;2.15;;;1.60;;
18445;SDS011;9352;50.888;4.466;2023-03-13T09:30:19;6.88;;;2.38;;
18445;SDS011;9352;50.888;4.466;2023-03-13T09:32:46;1.92;;;1.70;;
18445;SDS011;9352;50.888;4.466;2023-03-13T09:35:13;4.40;;;1.70;;
18445;SDS011;9352;50.888;4.466;2023-03-13T09:37:40;6.05;;;1.90;;
18445;SDS011;9352;50.888;4.466;2023-03-13T09:40:08;4.32;;;1.60;;
18445;SDS011;9352;50.888;4.466;2023-03-13T09:42:41;11.18;;;2.53;;
18445;SDS011;9352;50.888;4.466;2023-03-13T09:45:12;4.47;;;2.10;;
18445;SDS011;9352;50.888;4.466;2023-03-13T09:47:45;7.47;;;2.63;;
18445;SDS011;9352;50.888;4.466;2023-03-13T09:50:17;6.00;;;1.90;;
18445;SDS011;9352;50.888;4.466;2023-03-13T09:52:46;4.35;;;1.90;;
18445;SDS011;9352;50.888;4.466;2023-03-13T09:55:16;6.93;;;1.90;;
18445;SDS011;9352;50.888;4.466;2023-03-13T09:57:48;4.03;;;1.65;;
18445;SDS011;9352;50.888;4.466;2023-03-13T10:00:20;2.85;;;1.60;;
18445;SDS011;9352;50.888;4.466;2023-03-13T10:02:54;3.47;;;1.48;;
18445;SDS011;9352;50.888;4.466;2023-03-13T10:05:22;1.98;;;1.40;;
18445;SDS011;9352;50.888;4.466;2023-03-13T10:07:53;3.97;;;1.75;;
18445;SDS011;9352;50.888;4.466;2023-03-13T10:10:24;3.17;;;1.75;;
18445;SDS011;9352;50.888;4.466;2023-03-13T10:13:02;5.15;;;1.73;;
18445;SDS011;9352;50.888;4.466;2023-03-13T10:15:38;3.63;;;1.60;;
18445;SDS011;9352;50.888;4.466;2023-03-13T10:18:15;2.15;;;1.70;;
18445;SDS011;9352;50.888;4.466;2023-03-13T10:20:45;3.63;;;1.58;;
18445;SDS011;9352;50.888;4.466;2023-03-13T10:23:13;5.03;;;1.63;;
18445;SDS011;9352;50.888;4.466;2023-03-13T10:25:44;3.35;;;1.67;;
18445;SDS011;9352;50.888;4.466;2023-03-13T10:28:12;1.83;;;1.50;;
18445;SDS011;9352;50.888;4.466;2023-03-13T10:30:42;4.65;;;1.65;;
18445;SDS011;9352;50.888;4.466;2023-03-13T10:33:18;3.95;;;1.67;;
18445;SDS011;9352;50.888;4.466;2023-03-13T10:36:00;4.22;;;1.55;;
18445;SDS011;9352;50.888;4.466;2023-03-13T10:38:29;2.75;;;1.38;;
18445;SDS011;9352;50.888;4.466;2023-03-13T10:41:00;4.57;;;1.63;;
18445;SDS011;9352;50.888;4.466;2023-03-13T10:43:30;1.40;;;1.30;;
18445;SDS011;9352;50.888;4.466;2023-03-13T10:45:57;5.95;;;1.95;;
18445;SDS011;9352;50.888;4.466;2023-03-13T10:48:28;3.30;;;1.55;;
18445;SDS011;9352;50.888;4.466;2023-03-13T10:51:01;2.92;;;1.52;;
18445;SDS011;9352;50.888;4.466;2023-03-13T10:53:31;3.00;;;1.42;;
18445;SDS011;9352;50.888;4.466;2023-03-13T10:55:59;6.10;;;1.70;;
18445;SDS011;9352;50.888;4.466;2023-03-13T10:58:36;2.38;;;1.50;;
18445;SDS011;9352;50.888;4.466;2023-03-13T11:01:14;5.18;;;1.70;;
18445;SDS011;9352;50.888;4.466;2023-03-13T11:03:45;2.53;;;1.42;;
18445;SDS011;9352;50.888;4.466;2023-03-13T11:06:23;8.82;;;1.67;;
18445;SDS011;9352;50.888;4.466;2023-03-13T11:08:58;7.43;;;1.98;;
18445;SDS011;9352;50.888;4.466;2023-03-13T11:11:46;4.47;;;1.63;;
18445;SDS011;9352;50.888;4.466;2023-03-13T11:14:16;2.22;;;1.65;;
18445;SDS011;9352;50.888;4.466;2023-03-13T11:16:46;5.28;;;1.52;;
18445;SDS011;9352;50.888;4.466;2023-03-13T11:19:28;2.42;;;1.83;;
18445;SDS011;9352;50.888;4.466;2023-03-13T11:22:10;4.63;;;1.58;;
18445;SDS011;9352;50.888;4.466;2023-03-13T11:24:56;5.68;;;1.60;;
18445;SDS011;9352;50.888;4.466;2023-03-13T11:27:37;6.00;;;1.52;;
18445;SDS011;9352;50.888;4.466;2023-03-13T11:30:14;3.55;;;1.30;;
18445;SDS011;9352;50.888;4.466;2023-03-13T11:32:50;2.53;;;1.38;;
18445;SDS011;9352;50.888;4.466;2023-03-13T11:35:25;3.17;;;1.40;;
18445;SDS011;9352;50.888;4.466;2023-03-13T11:38:04;4.55;;;1.60;;
18445;SDS011;9352;50.888;4.466;2023-03-13T11:40:35;7.50;;;1.58;;
18445;SDS011;9352;50.888;4.466;2023-03-13T11:43:13;1.20;;;1.20;;
18445;SDS011;9352;50.888;4.466;2023-03-13T11:48:47;7.55;;;1.50;;
18445;SDS011;9352;50.888;4.466;2023-03-13T11:51:25;3.88;;;1.38;;
18445;SDS011;9352;50.888;4.466;2023-03-13T11:54:20;3.25;;;1.40;;
18445;SDS011;9352;50.888;4.466;2023-03-13T11:57:10;4.22;;;1.48;;
18445;SDS011;9352;50.888;4.466;2023-03-13T11:59:42;5.13;;;1.40;;
18445;SDS011;9352;50.888;4.466;2023-03-13T12:02:17;4.22;;;1.35;;
18445;SDS011;9352;50.888;4.466;2023-03-13T12:04:50;2.70;;;1.27;;
18445;SDS011;9352;50.888;4.466;2023-03-13T12:07:24;4.28;;;1.55;;
18445;SDS011;9352;50.888;4.466;2023-03-13T12:09:55;2.95;;;1.27;;
18445;SDS011;9352;50.888;4.466;2023-03-13T12:12:30;7.43;;;1.38;;
18445;SDS011;9352;50.888;4.466;2023-03-13T12:15:05;1.60;;;1.20;;
18445;SDS011;9352;50.888;4.466;2023-03-13T12:17:44;3.20;;;1.17;;
18445;SDS011;9352;50.888;4.466;2023-03-13T12:20:16;5.18;;;1.67;;
18445;SDS011;9352;50.888;4.466;2023-03-13T12:22:51;2.40;;;1.20;;
18445;SDS011;9352;50.888;4.466;2023-03-13T12:25:22;2.45;;;1.40;;
18445;SDS011;9352;50.888;4.466;2023-03-13T12:27:53;4.93;;;1.23;;
18445;SDS011;9352;50.888;4.466;2023-03-13T12:30:27;1.80;;;1.20;;
18445;SDS011;9352;50.888;4.466;2023-03-13T12:33:02;2.33;;;1.40;;
18445;SDS011;9352;50.888;4.466;2023-03-13T12:35:40;2.83;;;1.35;;
18445;SDS011;9352;50.888;4.466;2023-03-13T12:38:13;3.22;;;1.30;;
18445;SDS011;9352;50.888;4.466;2023-03-13T12:40:46;2.95;;;1.33;;
18445;SDS011;9352;50.888;4.466;2023-03-13T12:43:16;3.15;;;1.20;;
18445;SDS011;9352;50.888;4.466;2023-03-13T12:45:52;3.50;;;1.45;;
18445;SDS011;9352;50.888;4.466;2023-03-13T12:48:37;6.95;;;1.50;;
18445;SDS011;9352;50.888;4.466;2023-03-13T12:51:19;1.67;;;1.00;;
18445;SDS011;9352;50.888;4.466;2023-03-13T12:54:21;2.42;;;1.48;;
18445;SDS011;9352;50.888;4.466;2023-03-13T12:57:02;2.28;;;1.10;;
18445;SDS011;9352;50.888;4.466;2023-03-13T12:59:40;1.40;;;1.30;;
18445;SDS011;9352;50.888;4.466;2023-03-13T13:02:13;8.07;;;1.50;;
18445;SDS011;9352;50.888;4.466;2023-03-13T13:04:44;10.07;;;1.60;;
18445;SDS011;9352;50.888;4.466;2023-03-13T13:07:20;1.52;;;1.42;;
18445;SDS011;9352;50.888;4.466;2023-03-13T13:10:02;4.05;;;1.50;;
18445;SDS011;9352;50.888;4.466;2023-03-13T13:12:43;3.33;;;1.30;;
18445;SDS011;9352;50.888;4.466;2023-03-13T13:15:15;7.53;;;1.20;;
18445;SDS011;9352;50.888;4.466;2023-03-13T13:17:49;5.57;;;1.52;;
18445;SDS011;9352;50.888;4.466;2023-03-13T13:20:38;5.32;;;1.65;;
18445;SDS011;9352;50.888;4.466;2023-03-13T13:23:23;3.33;;;1.65;;
18445;SDS011;9352;50.888;4.466;2023-03-13T13:32:32;5.22;;;1.40;;
18445;SDS011;9352;50.888;4.466;2023-03-13T13:35:23;4.28;;;1.30;;
18445;SDS011;9352;50.888;4.466;2023-03-13T13:41:01;4.72;;;1.50;;
18445;SDS011;9352;50.888;4.466;2023-03-13T13:43:30;4.45;;;1.67;;
18445;SDS011;9352;50.888;4.466;2023-03-13T13:45:59;4.32;;;1.50;;
18445;SDS011;9352;50.888;4.466;2023-03-13T13:48:32;3.22;;;1.35;;
18445;SDS011;9352;50.888;4.466;2023-03-13T13:53:59;4.63;;;1.80;;
18445;SDS011;9352;50.888;4.466;2023-03-13T13:56:28;3.67;;;1.35;;
18445;SDS011;9352;50.888;4.466;2023-03-13T14:02:18;6.22;;;1.50;;
18445;SDS011;9352;50.888;4.466;2023-03-13T14:04:58;6.13;;;1.52;;
18445;SDS011;9352;50.888;4.466;2023-03-13T14:07:29;2.70;;;1.40;;
18445;SDS011;9352;50.888;4.466;2023-03-13T14:10:20;3.15;;;1.30;;
18445;SDS011;9352;50.888;4.466;2023-03-13T14:12:55;14.13;;;2.17;;
18445;SDS011;9352;50.888;4.466;2023-03-13T14:15:24;7.90;;;1.48;;
18445;SDS011;9352;50.888;4.466;2023-03-13T14:17:52;5.07;;;1.38;;
18445;SDS011;9352;50.888;4.466;2023-03-13T14:20:23;8.15;;;1.77;;
18445;SDS011;9352;50.888;4.466;2023-03-13T14:22:54;11.40;;;1.50;;
18445;SDS011;9352;50.888;4.466;2023-03-13T14:25:22;9.20;;;1.80;;
18445;SDS011;9352;50.888;4.466;2023-03-13T14:27:50;6.93;;;1.80;;
18445;SDS011;9352;50.888;4.466;2023-03-13T14:30:19;6.35;;;2.10;;
18445;SDS011;9352;50.888;4.466;2023-03-13T14:32:47;2.50;;;1.48;;
18445;SDS011;9352;50.888;4.466;2023-03-13T14:35:15;7.32;;;1.77;;
18445;SDS011;9352;50.888;4.466;2023-03-13T14:37:47;8.95;;;1.55;;
18445;SDS011;9352;50.888;4.466;2023-03-13T14:40:19;8.32;;;1.63;;
18445;SDS011;9352;50.888;4.466;2023-03-13T14:42:49;9.48;;;2.13;;
18445;SDS011;9352;50.888;4.466;2023-03-13T14:45:20;5.38;;;1.75;;
18445;SDS011;9352;50.888;4.466;2023-03-13T14:47:49;12.63;;;2.20;;
18445;SDS011;9352;50.888;4.466;2023-03-13T14:50:17;9.18;;;1.95;;
18445;SDS011;9352;50.888;4.466;2023-03-13T14:52:50;9.50;;;1.73;;
18445;SDS011;9352;50.888;4.466;2023-03-13T14:55:26;6.40;;;1.95;;
18445;SDS011;9352;50.888;4.466;2023-03-13T14:57:57;5.43;;;1.60;;
18445;SDS011;9352;50.888;4.466;2023-03-13T15:00:33;21.02;;;2.45;;
18445;SDS011;9352;50.888;4.466;2023-03-13T15:03:12;6.97;;;1.73;;
18445;SDS011;9352;50.888;4.466;2023-03-13T15:05:47;5.85;;;1.83;;
18445;SDS011;9352;50.888;4.466;2023-03-13T15:08:16;4.05;;;1.67;;
18445;SDS011;9352;50.888;4.466;2023-03-13T15:10:44;3.72;;;1.60;;
18445;SDS011;9352;50.888;4.466;2023-03-13T15:13:15;4.60;;;2.00;;
18445;SDS011;9352;50.888;4.466;2023-03-13T15:15:48;6.70;;;1.90;;
18445;SDS011;9352;50.888;4.466;2023-03-13T15:18:16;7.20;;;2.03;;
18445;SDS011;9352;50.888;4.466;2023-03-13T15:20:47;7.72;;;2.08;;
18445;SDS011;9352;50.888;4.466;2023-03-13T15:23:16;7.32;;;2.10;;
18445;SDS011;9352;50.888;4.466;2023-03-13T15:25:43;4.97;;;2.00;;
18445;SDS011;9352;50.888;4.466;2023-03-13T15:28:14;7.93;;;1.98;;
18445;SDS011;9352;50.888;4.466;2023-03-13T15:30:42;8.45;;;2.50;;
18445;SDS011;9352;50.888;4.466;2023-03-13T15:33:13;5.93;;;2.25;;